Time;durP1;ratioP1;P1;durP2;ratioP2;P2;SDS_P1;SDS_P2;PMS_P1;PMS_P2;Temp;Humidity;BMP_temperature;BMP_pressure;BME280_temperature;BME280_humidity;BME280_pressure;Samples;Min_cycle;Max_cycle;Signal;HPM_P1;HPM_P2
2023/06/08 00:01:29;;;;;;;4.00;2.63;;;;;;;;;;5082159;28;20456;-66
2023/06/08 00:03:56;;;;;;;3.33;2.70;;;;;;;;;;5082530;28;20246;-66
2023/06/08 00:06:22;;;;;;;3.35;2.78;;;;;;;;;;5082068;28;20200;-68
2023/06/08 00:08:50;;;;;;;3.50;2.92;;;;;;;;;;5082136;28;20200;-66
2023/06/08 00:11:16;;;;;;;3.28;3.00;;;;;;;;;;5082094;28;20238;-66
2023/06/08 00:13:43;;;;;;;4.53;3.35;;;;;;;;;;5082221;28;20216;-66
2023/06/08 00:16:09;;;;;;;3.75;3.03;;;;;;;;;;5081770;28;20434;-68
2023/06/08 00:18:36;;;;;;;3.47;3.15;;;;;;;;;;5081776;28;20223;-66
2023/06/08 00:21:02;;;;;;;3.08;2.88;;;;;;;;;;5082221;28;20208;-66
2023/06/08 00:23:29;;;;;;;4.25;2.83;;;;;;;;;;5082112;28;20200;-66
2023/06/08 00:25:56;;;;;;;2.80;2.67;;;;;;;;;;5082090;28;20392;-66
2023/06/08 00:28:23;;;;;;;4.45;3.08;;;;;;;;;;5081683;28;20246;-66
2023/06/08 00:30:49;;;;;;;2.97;2.88;;;;;;;;;;5081792;28;20204;-67
2023/06/08 00:33:16;;;;;;;2.95;2.75;;;;;;;;;;5081608;28;20207;-68
2023/06/08 00:35:42;;;;;;;3.40;3.20;;;;;;;;;;5081881;28;20200;-68
2023/06/08 00:38:08;;;;;;;3.00;2.90;;;;;;;;;;5081707;28;20220;-66
2023/06/08 00:40:34;;;;;;;2.85;2.65;;;;;;;;;;5081867;28;20594;-66
2023/06/08 00:43:02;;;;;;;3.47;3.28;;;;;;;;;;5082327;28;20500;-66
2023/06/08 00:45:28;;;;;;;4.13;2.95;;;;;;;;;;5082012;28;20266;-66
2023/06/08 00:47:55;;;;;;;3.60;3.40;;;;;;;;;;5081633;28;20431;-67
2023/06/08 00:50:23;;;;;;;4.13;3.70;;;;;;;;;;5081720;28;20204;-66
2023/06/08 00:52:50;;;;;;;3.50;3.30;;;;;;;;;;5081849;28;20200;-66
2023/06/08 00:55:19;;;;;;;4.05;3.05;;;;;;;;;;5081674;28;20561;-67
2023/06/08 00:57:47;;;;;;;3.47;3.22;;;;;;;;;;5081440;28;20469;-68
2023/06/08 01:00:15;;;;;;;4.05;3.40;;;;;;;;;;5082054;28;20446;-67
2023/06/08 01:02:42;;;;;;;3.58;3.38;;;;;;;;;;5073340;28;20376;-66
2023/06/08 01:05:08;;;;;;;3.00;2.80;;;;;;;;;;5081761;28;20211;-66
2023/06/08 01:07:40;;;;;;;3.85;3.20;;;;;;;;;;5081286;28;20426;-68
2023/06/08 01:10:09;;;;;;;3.38;2.60;;;;;;;;;;5081660;28;20243;-68
2023/06/08 01:12:41;;;;;;;3.10;2.90;;;;;;;;;;5081547;28;20219;-66
2023/06/08 01:15:12;;;;;;;3.10;2.90;;;;;;;;;;5081519;28;20543;-66
2023/06/08 01:17:41;;;;;;;3.47;2.95;;;;;;;;;;5081180;28;20201;-66
2023/06/08 01:20:17;;;;;;;3.53;3.25;;;;;;;;;;5081584;28;20196;-68
2023/06/08 01:22:51;;;;;;;2.80;2.70;;;;;;;;;;5074187;28;20259;-66
2023/06/08 01:25:20;;;;;;;3.50;3.20;;;;;;;;;;5085300;28;20196;-66
2023/06/08 01:27:48;;;;;;;3.58;3.30;;;;;;;;;;5084883;28;20223;-66
2023/06/08 01:30:14;;;;;;;3.28;3.00;;;;;;;;;;5085402;28;20200;-66
2023/06/08 01:32:41;;;;;;;3.63;3.40;;;;;;;;;;5085152;28;20259;-66
2023/06/08 01:35:07;;;;;;;3.13;3.00;;;;;;;;;;5085281;28;20196;-66
2023/06/08 01:37:34;;;;;;;3.38;3.08;;;;;;;;;;5084553;28;20196;-66
2023/06/08 01:40:05;;;;;;;2.92;2.83;;;;;;;;;;5085049;28;20253;-66
2023/06/08 01:42:33;;;;;;;3.17;2.90;;;;;;;;;;5084840;28;20369;-66
2023/06/08 01:45:01;;;;;;;3.60;3.30;;;;;;;;;;5085265;28;20196;-66
2023/06/08 01:47:33;;;;;;;3.38;3.17;;;;;;;;;;5084696;28;20238;-66
2023/06/08 01:50:01;;;;;;;3.33;3.13;;;;;;;;;;5085450;28;20496;-68
2023/06/08 01:52:27;;;;;;;3.38;3.17;;;;;;;;;;5084820;28;20196;-66
2023/06/08 01:54:54;;;;;;;3.08;2.90;;;;;;;;;;5084754;28;20200;-66
2023/06/08 01:57:20;;;;;;;3.50;3.30;;;;;;;;;;5084351;28;20204;-66
2023/06/08 01:59:48;;;;;;;3.15;2.90;;;;;;;;;;5084619;28;20219;-66
2023/06/08 02:02:15;;;;;;;3.20;3.10;;;;;;;;;;5084757;28;20219;-66
2023/06/08 02:04:41;;;;;;;3.25;3.15;;;;;;;;;;5084609;28;20200;-66
2023/06/08 02:07:07;;;;;;;3.70;3.30;;;;;;;;;;5084269;28;20208;-66
2023/06/08 02:09:33;;;;;;;3.75;3.08;;;;;;;;;;5084309;28;20192;-66
2023/06/08 02:12:03;;;;;;;4.43;3.17;;;;;;;;;;5084746;28;20203;-66
2023/06/08 02:14:29;;;;;;;3.03;2.78;;;;;;;;;;5084346;28;20197;-67
2023/06/08 02:17:00;;;;;;;3.17;2.88;;;;;;;;;;5084063;28;20197;-66
2023/06/08 02:19:26;;;;;;;3.05;2.88;;;;;;;;;;5084271;28;20216;-66
2023/06/08 02:21:53;;;;;;;2.90;2.78;;;;;;;;;;5084164;28;20200;-65
2023/06/08 02:24:19;;;;;;;2.95;2.85;;;;;;;;;;5084502;28;20200;-66
2023/06/08 02:26:45;;;;;;;3.10;2.90;;;;;;;;;;5083974;28;20205;-66
2023/06/08 02:29:11;;;;;;;4.93;3.13;;;;;;;;;;5084095;28;20192;-66
2023/06/08 02:31:38;;;;;;;3.80;3.10;;;;;;;;;;5084218;28;20201;-66
2023/06/08 02:34:05;;;;;;;3.05;2.92;;;;;;;;;;5083191;28;20197;-66
2023/06/08 02:36:33;;;;;;;3.60;3.30;;;;;;;;;;5083458;28;20203;-66
2023/06/08 02:38:59;;;;;;;4.18;3.13;;;;;;;;;;5084151;28;20216;-66
2023/06/08 02:41:26;;;;;;;3.50;3.33;;;;;;;;;;5083994;28;20234;-66
2023/06/08 02:43:52;;;;;;;3.42;3.22;;;;;;;;;;5084011;28;20196;-66
2023/06/08 02:46:19;;;;;;;3.95;3.65;;;;;;;;;;5083778;28;20430;-66
2023/06/08 02:48:45;;;;;;;3.63;3.40;;;;;;;;;;5083722;28;20192;-66
2023/06/08 02:51:13;;;;;;;3.35;3.05;;;;;;;;;;5083700;28;20393;-66
2023/06/08 02:53:39;;;;;;;3.33;3.13;;;;;;;;;;5083883;28;20227;-66
2023/06/08 02:56:05;;;;;;;3.58;3.00;;;;;;;;;;5083474;28;20196;-66
2023/06/08 02:58:33;;;;;;;4.00;3.63;;;;;;;;;;5083440;28;20220;-68
2023/06/08 03:01:00;;;;;;;3.30;3.17;;;;;;;;;;5083651;28;20207;-66
2023/06/08 03:03:27;;;;;;;3.17;2.97;;;;;;;;;;5083297;28;20656;-68
2023/06/08 03:05:58;;;;;;;3.55;3.10;;;;;;;;;;5083656;28;20376;-68
2023/06/08 03:08:26;;;;;;;3.55;3.15;;;;;;;;;;5083129;28;20202;-68
2023/06/08 03:10:52;;;;;;;3.28;3.10;;;;;;;;;;5083524;28;20201;-68
2023/06/08 03:13:19;;;;;;;3.75;3.55;;;;;;;;;;5083306;28;20212;-68
2023/06/08 03:15:45;;;;;;;3.42;2.97;;;;;;;;;;5083021;28;20197;-68
2023/06/08 03:18:11;;;;;;;4.00;3.60;;;;;;;;;;5083010;28;20633;-66
2023/06/08 03:20:38;;;;;;;3.15;2.85;;;;;;;;;;5083396;28;20504;-67
2023/06/08 03:23:05;;;;;;;3.13;2.92;;;;;;;;;;5083238;28;20200;-68
2023/06/08 03:25:33;;;;;;;3.88;3.63;;;;;;;;;;5082959;28;20203;-67
2023/06/08 03:27:59;;;;;;;3.67;3.47;;;;;;;;;;5082772;28;20217;-68
2023/06/08 03:30:26;;;;;;;3.78;3.50;;;;;;;;;;5082876;28;20204;-68
2023/06/08 03:32:52;;;;;;;3.78;3.28;;;;;;;;;;5082774;28;20196;-68
2023/06/08 03:35:19;;;;;;;3.13;3.03;;;;;;;;;;5083092;28;20196;-68
2023/06/08 03:37:45;;;;;;;3.20;3.00;;;;;;;;;;5082818;28;20255;-67
2023/06/08 03:40:11;;;;;;;3.42;3.22;;;;;;;;;;5082765;28;20223;-68
2023/06/08 03:42:39;;;;;;;3.20;2.90;;;;;;;;;;5082795;28;20223;-68
2023/06/08 03:45:06;;;;;;;5.97;3.92;;;;;;;;;;5082421;28;20200;-68
2023/06/08 03:47:32;;;;;;;3.60;3.40;;;;;;;;;;5082055;28;20211;-68
2023/06/08 03:49:58;;;;;;;4.47;4.05;;;;;;;;;;5082821;28;20530;-68
2023/06/08 03:52:25;;;;;;;4.20;4.00;;;;;;;;;;5082816;28;20196;-68
2023/06/08 03:54:51;;;;;;;4.38;4.07;;;;;;;;;;5074351;28;20200;-68
2023/06/08 03:57:17;;;;;;;4.25;4.03;;;;;;;;;;5082187;28;20197;-68
2023/06/08 03:59:45;;;;;;;4.35;4.10;;;;;;;;;;5082054;28;20227;-68
2023/06/08 04:02:12;;;;;;;6.18;4.25;;;;;;;;;;5082205;28;20201;-68
2023/06/08 04:04:39;;;;;;;4.35;3.92;;;;;;;;;;5082177;28;20211;-68
2023/06/08 04:07:05;;;;;;;4.55;4.25;;;;;;;;;;5082051;28;20200;-68
2023/06/08 04:09:31;;;;;;;4.00;3.72;;;;;;;;;;5082495;28;20192;-68
2023/06/08 04:11:58;;;;;;;3.90;3.60;;;;;;;;;;5082297;28;20419;-68
2023/06/08 04:14:24;;;;;;;4.32;3.90;;;;;;;;;;5082039;28;20203;-68
2023/06/08 04:16:52;;;;;;;3.85;3.55;;;;;;;;;;5081902;28;20238;-69
2023/06/08 04:19:18;;;;;;;3.70;3.42;;;;;;;;;;5082036;28;20222;-69
2023/06/08 04:21:44;;;;;;;3.42;3.20;;;;;;;;;;5081947;28;20208;-69
2023/06/08 04:24:10;;;;;;;4.05;3.67;;;;;;;;;;5082195;28;20206;-69
2023/06/08 04:26:37;;;;;;;4.22;3.60;;;;;;;;;;5081768;28;20265;-69
2023/06/08 04:29:03;;;;;;;3.92;3.72;;;;;;;;;;5081786;28;20219;-69
2023/06/08 04:31:30;;;;;;;3.95;3.75;;;;;;;;;;5082121;28;20197;-69
2023/06/08 04:33:58;;;;;;;4.38;4.07;;;;;;;;;;5082173;28;20196;-69
2023/06/08 04:36:25;;;;;;;4.43;4.10;;;;;;;;;;5081764;28;20496;-69
2023/06/08 04:38:51;;;;;;;4.00;3.70;;;;;;;;;;5082070;28;20216;-69
2023/06/08 04:41:18;;;;;;;4.03;3.75;;;;;;;;;;5081834;28;20196;-69
2023/06/08 04:43:45;;;;;;;4.43;4.13;;;;;;;;;;5081621;28;20208;-68
2023/06/08 04:46:13;;;;;;;5.18;4.20;;;;;;;;;;5081699;28;20389;-68
2023/06/08 04:48:39;;;;;;;4.72;4.32;;;;;;;;;;5081086;28;20527;-70
2023/06/08 04:51:09;;;;;;;4.47;4.18;;;;;;;;;;5081327;28;20197;-70
2023/06/08 04:53:35;;;;;;;4.30;4.10;;;;;;;;;;5081253;28;20200;-70
2023/06/08 04:56:02;;;;;;;4.60;4.20;;;;;;;;;;5080872;28;20197;-70
2023/06/08 04:58:29;;;;;;;4.43;4.05;;;;;;;;;;5083236;28;20262;-70
2023/06/08 05:00:56;;;;;;;5.75;3.70;;;;;;;;;;5077119;28;20208;-70
2023/06/08 05:03:22;;;;;;;4.00;3.70;;;;;;;;;;5085601;28;20197;-70
2023/06/08 05:05:49;;;;;;;4.00;3.80;;;;;;;;;;5085291;28;20207;-70
2023/06/08 05:08:16;;;;;;;4.00;3.70;;;;;;;;;;5085492;28;20200;-70
2023/06/08 05:10:43;;;;;;;4.00;3.70;;;;;;;;;;5085502;28;20196;-70
2023/06/08 05:13:09;;;;;;;4.55;4.03;;;;;;;;;;5085760;28;20203;-70
2023/06/08 05:15:35;;;;;;;4.20;3.90;;;;;;;;;;5085599;28;20267;-70
2023/06/08 05:18:01;;;;;;;4.05;3.78;;;;;;;;;;5085434;28;20447;-70
2023/06/08 05:20:29;;;;;;;4.40;4.10;;;;;;;;;;5085419;28;20266;-70
2023/06/08 05:22:55;;;;;;;4.47;4.07;;;;;;;;;;5085873;28;20500;-70
2023/06/08 05:25:23;;;;;;;4.78;4.45;;;;;;;;;;5085309;28;20195;-70
2023/06/08 05:27:49;;;;;;;4.88;4.57;;;;;;;;;;5084953;28;20228;-70
2023/06/08 05:30:16;;;;;;;4.70;4.15;;;;;;;;;;5085289;28;20238;-70
2023/06/08 05:32:42;;;;;;;4.20;3.80;;;;;;;;;;5085236;28;20227;-70
2023/06/08 05:35:08;;;;;;;4.95;4.03;;;;;;;;;;5085299;28;20219;-70
2023/06/08 05:37:35;;;;;;;4.40;4.10;;;;;;;;;;5084759;28;20207;-70
2023/06/08 05:40:01;;;;;;;4.35;4.05;;;;;;;;;;5085191;28;20219;-70
2023/06/08 05:42:28;;;;;;;4.32;4.03;;;;;;;;;;5085234;28;20203;-70
2023/06/08 05:44:55;;;;;;;4.82;4.47;;;;;;;;;;5085067;28;20196;-70
2023/06/08 05:47:21;;;;;;;4.28;3.97;;;;;;;;;;5084799;28;20196;-70
2023/06/08 05:49:47;;;;;;;4.72;4.43;;;;;;;;;;5084828;28;20204;-70
2023/06/08 05:52:13;;;;;;;4.43;4.13;;;;;;;;;;5085028;28;20497;-70
2023/06/08 05:54:40;;;;;;;4.05;3.75;;;;;;;;;;5084628;28;20444;-70
2023/06/08 05:57:06;;;;;;;4.65;4.25;;;;;;;;;;5084770;28;20406;-70
2023/06/08 05:59:34;;;;;;;4.85;4.45;;;;;;;;;;5084781;28;20217;-70
2023/06/08 06:02:00;;;;;;;4.65;4.32;;;;;;;;;;5076849;28;20201;-70
2023/06/08 06:04:26;;;;;;;4.13;3.92;;;;;;;;;;5084531;28;20246;-70
2023/06/08 06:06:52;;;;;;;4.70;4.30;;;;;;;;;;5084149;28;20208;-70
2023/06/08 06:09:19;;;;;;;4.10;3.90;;;;;;;;;;5084588;28;20200;-70
2023/06/08 06:11:47;;;;;;;5.07;4.57;;;;;;;;;;5084607;28;20538;-70
2023/06/08 06:14:13;;;;;;;4.80;4.50;;;;;;;;;;5084537;28;20268;-70
2023/06/08 06:16:41;;;;;;;6.38;4.25;;;;;;;;;;5084332;28;20246;-70
2023/06/08 06:19:07;;;;;;;9.68;4.95;;;;;;;;;;5084413;28;20196;-70
2023/06/08 06:21:34;;;;;;;8.55;6.25;;;;;;;;;;5084442;28;20504;-70
2023/06/08 06:24:00;;;;;;;5.40;4.97;;;;;;;;;;5076182;28;20235;-70
2023/06/08 06:26:26;;;;;;;5.40;4.30;;;;;;;;;;5084231;28;20204;-70
2023/06/08 06:28:53;;;;;;;5.15;4.63;;;;;;;;;;5084202;28;20219;-68
2023/06/08 06:31:19;;;;;;;4.70;4.32;;;;;;;;;;5084305;28;20201;-68
2023/06/08 06:33:47;;;;;;;4.25;4.05;;;;;;;;;;5083969;28;20200;-68
2023/06/08 06:36:13;;;;;;;4.80;3.92;;;;;;;;;;5083796;28;20204;-68
2023/06/08 06:38:39;;;;;;;5.05;4.13;;;;;;;;;;5084171;28;20201;-68
2023/06/08 06:41:05;;;;;;;4.72;4.07;;;;;;;;;;5083918;28;20228;-68
2023/06/08 06:43:31;;;;;;;5.00;3.90;;;;;;;;;;5084515;28;20228;-68
2023/06/08 06:45:58;;;;;;;4.80;3.88;;;;;;;;;;5083650;28;20200;-70
2023/06/08 06:48:24;;;;;;;4.43;4.15;;;;;;;;;;5083994;28;20203;-70
2023/06/08 06:50:52;;;;;;;3.95;3.65;;;;;;;;;;5083688;28;20410;-70
2023/06/08 06:53:18;;;;;;;4.55;4.28;;;;;;;;;;5084008;28;20196;-70
2023/06/08 06:55:44;;;;;;;4.75;4.43;;;;;;;;;;5083770;28;20207;-68
2023/06/08 06:58:11;;;;;;;3.95;3.75;;;;;;;;;;5083656;28;20200;-70
2023/06/08 07:00:38;;;;;;;4.22;3.63;;;;;;;;;;5083398;28;20257;-68
2023/06/08 07:03:04;;;;;;;4.15;3.85;;;;;;;;;;5083639;28;20405;-70
2023/06/08 07:05:31;;;;;;;3.55;3.35;;;;;;;;;;5084044;28;20266;-68
2023/06/08 07:07:59;;;;;;;3.88;3.55;;;;;;;;;;5083275;28;20523;-68
2023/06/08 07:10:25;;;;;;;3.97;3.72;;;;;;;;;;5083604;28;20192;-68
2023/06/08 07:12:51;;;;;;;6.55;3.58;;;;;;;;;;5083495;28;20279;-68
2023/06/08 07:15:18;;;;;;;3.92;3.55;;;;;;;;;;5083482;28;20203;-68
2023/06/08 07:17:46;;;;;;;4.03;3.60;;;;;;;;;;5083109;28;20238;-68
2023/06/08 07:20:13;;;;;;;3.70;3.40;;;;;;;;;;5082512;28;20245;-68
2023/06/08 07:22:39;;;;;;;3.97;3.58;;;;;;;;;;5083033;28;20208;-68
2023/06/08 07:25:07;;;;;;;4.88;4.10;;;;;;;;;;5083022;28;20207;-68
2023/06/08 07:27:33;;;;;;;3.20;3.00;;;;;;;;;;5082707;28;20224;-68
2023/06/08 07:30:00;;;;;;;3.45;3.25;;;;;;;;;;5082759;28;20204;-68
2023/06/08 07:32:28;;;;;;;3.10;2.90;;;;;;;;;;5082761;28;20489;-68
2023/06/08 07:34:55;;;;;;;3.55;3.25;;;;;;;;;;5082790;28;20234;-68
2023/06/08 07:37:21;;;;;;;3.88;3.58;;;;;;;;;;5082603;28;20200;-68
2023/06/08 07:39:47;;;;;;;3.60;3.20;;;;;;;;;;5082604;28;20224;-68
2023/06/08 07:42:15;;;;;;;3.40;3.20;;;;;;;;;;5082754;28;20196;-68
2023/06/08 07:44:41;;;;;;;3.28;3.08;;;;;;;;;;5082432;28;20200;-68
2023/06/08 07:47:07;;;;;;;3.63;3.40;;;;;;;;;;5082178;28;20558;-68
2023/06/08 07:49:33;;;;;;;3.58;3.38;;;;;;;;;;5082301;28;20204;-68
2023/06/08 07:52:00;;;;;;;3.40;3.22;;;;;;;;;;5082629;28;20236;-68
2023/06/08 07:54:26;;;;;;;3.05;2.95;;;;;;;;;;5082497;28;20219;-68
2023/06/08 07:56:52;;;;;;;4.75;3.22;;;;;;;;;;5082251;28;20347;-69
2023/06/08 07:59:20;;;;;;;3.78;3.50;;;;;;;;;;5082257;28;20209;-69
2023/06/08 08:01:46;;;;;;;3.95;3.08;;;;;;;;;;5082040;28;20723;-69
2023/06/08 08:04:12;;;;;;;5.93;3.25;;;;;;;;;;5082358;28;20504;-69
2023/06/08 08:06:39;;;;;;;3.80;3.47;;;;;;;;;;5082485;28;20441;-69
2023/06/08 08:09:05;;;;;;;3.92;3.63;;;;;;;;;;5082178;28;20395;-69
2023/06/08 08:11:31;;;;;;;6.72;4.13;;;;;;;;;;5082240;28;20535;-69
2023/06/08 08:13:58;;;;;;;3.60;3.28;;;;;;;;;;5081984;28;20204;-69
2023/06/08 08:16:25;;;;;;;3.78;3.55;;;;;;;;;;5082090;28;20454;-69
2023/06/08 08:18:52;;;;;;;3.30;3.10;;;;;;;;;;5082075;28;20208;-69
2023/06/08 08:21:18;;;;;;;3.92;3.70;;;;;;;;;;5081987;28;20265;-69
2023/06/08 08:23:45;;;;;;;3.50;3.30;;;;;;;;;;5081880;28;20204;-69
2023/06/08 08:26:11;;;;;;;4.00;3.70;;;;;;;;;;5081924;28;20242;-69
2023/06/08 08:28:41;;;;;;;3.53;3.40;;;;;;;;;;5081884;28;20577;-69
2023/06/08 08:31:07;;;;;;;3.70;3.50;;;;;;;;;;5082094;28;20188;-69
2023/06/08 08:33:35;;;;;;;3.05;2.95;;;;;;;;;;5081751;28;20200;-69
2023/06/08 08:36:01;;;;;;;3.85;3.53;;;;;;;;;;5081574;28;20200;-69
2023/06/08 08:38:27;;;;;;;4.15;3.60;;;;;;;;;;5083165;28;20196;-69
2023/06/08 08:40:55;;;;;;;3.67;3.40;;;;;;;;;;5083009;28;20239;-69
2023/06/08 08:43:24;;;;;;;3.67;3.33;;;;;;;;;;5082740;28;20417;-69
2023/06/08 08:45:51;;;;;;;4.25;3.90;;;;;;;;;;5082948;28;20404;-69
2023/06/08 08:48:19;;;;;;;3.65;3.40;;;;;;;;;;5083029;28;20372;-69
2023/06/08 08:50:53;;;;;;;3.53;3.33;;;;;;;;;;5082990;28;20220;-69
2023/06/08 08:53:20;;;;;;;4.43;3.92;;;;;;;;;;5083149;28;20196;-69
2023/06/08 08:55:48;;;;;;;3.85;3.38;;;;;;;;;;5082927;28;20212;-69
2023/06/08 08:58:18;;;;;;;5.70;3.53;;;;;;;;;;5082867;28;20196;-69
2023/06/08 09:00:48;;;;;;;7.13;3.67;;;;;;;;;;5082853;28;20227;-69
2023/06/08 09:03:15;;;;;;;5.88;3.50;;;;;;;;;;5082588;28;20188;-69
2023/06/08 09:05:43;;;;;;;4.00;3.70;;;;;;;;;;5082860;28;20214;-69
2023/06/08 09:08:11;;;;;;;3.50;3.40;;;;;;;;;;5082276;28;20199;-69
2023/06/08 09:10:37;;;;;;;3.92;3.63;;;;;;;;;;5082583;28;20199;-70
2023/06/08 09:13:03;;;;;;;3.58;3.28;;;;;;;;;;5082677;28;20204;-69
2023/06/08 09:15:32;;;;;;;3.50;3.20;;;;;;;;;;5082391;28;20196;-69
2023/06/08 09:18:02;;;;;;;4.90;3.67;;;;;;;;;;5082130;28;20200;-70
2023/06/08 09:20:29;;;;;;;3.28;3.05;;;;;;;;;;5082340;28;20261;-69
2023/06/08 09:22:56;;;;;;;4.38;3.05;;;;;;;;;;5081994;28;20443;-69
2023/06/08 09:25:34;;;;;;;3.33;3.13;;;;;;;;;;5082537;28;20242;-69
2023/06/08 09:28:14;;;;;;;3.00;2.80;;;;;;;;;;5081981;28;20434;-69
2023/06/08 09:30:41;;;;;;;3.13;2.85;;;;;;;;;;5082420;28;20202;-69
2023/06/08 09:33:19;;;;;;;4.13;3.15;;;;;;;;;;5082014;28;20203;-69
2023/06/08 09:35:45;;;;;;;3.33;3.13;;;;;;;;;;5081174;28;20224;-69
2023/06/08 09:38:18;;;;;;;3.78;3.47;;;;;;;;;;5080897;28;20200;-69
2023/06/08 09:40:46;;;;;;;3.67;3.50;;;;;;;;;;5080962;28;20230;-69
2023/06/08 09:43:12;;;;;;;3.53;3.15;;;;;;;;;;5081063;28;20200;-69
2023/06/08 09:45:43;;;;;;;3.72;3.55;;;;;;;;;;5085015;28;20204;-69
2023/06/08 09:48:10;;;;;;;3.53;3.40;;;;;;;;;;5084617;28;20404;-70
2023/06/08 09:50:37;;;;;;;3.20;3.00;;;;;;;;;;5084867;28;20449;-70
2023/06/08 09:53:06;;;;;;;3.97;3.78;;;;;;;;;;5084634;28;20253;-70
2023/06/08 09:55:33;;;;;;;3.90;3.70;;;;;;;;;;5084983;28;20246;-70
2023/06/08 09:58:01;;;;;;;3.88;3.50;;;;;;;;;;5085045;28;20223;-70
2023/06/08 10:00:29;;;;;;;3.67;3.38;;;;;;;;;;5085213;28;20191;-70
2023/06/08 10:03:00;;;;;;;7.28;3.65;;;;;;;;;;5085360;28;20207;-70
2023/06/08 10:05:28;;;;;;;3.50;3.30;;;;;;;;;;5085361;28;20196;-70
2023/06/08 10:07:56;;;;;;;3.70;3.50;;;;;;;;;;5084653;28;20236;-69
2023/06/08 10:10:23;;;;;;;3.70;3.42;;;;;;;;;;5085023;28;20202;-69
2023/06/08 10:12:49;;;;;;;4.03;3.70;;;;;;;;;;5084957;28;20215;-69
2023/06/08 10:15:17;;;;;;;4.15;3.85;;;;;;;;;;5084423;28;20210;-69
2023/06/08 10:17:44;;;;;;;3.47;3.38;;;;;;;;;;5083974;28;20227;-69
2023/06/08 10:20:12;;;;;;;3.90;3.70;;;;;;;;;;5084064;28;20234;-69
2023/06/08 10:22:40;;;;;;;3.97;3.67;;;;;;;;;;5083996;28;20223;-69
2023/06/08 10:25:07;;;;;;;5.53;3.70;;;;;;;;;;5084548;28;20249;-69
2023/06/08 10:27:35;;;;;;;4.10;3.65;;;;;;;;;;5083448;28;20227;-69
2023/06/08 10:30:03;;;;;;;7.30;4.30;;;;;;;;;;5083653;28;20464;-70
2023/06/08 10:32:31;;;;;;;4.25;3.42;;;;;;;;;;5084153;28;20192;-70
2023/06/08 10:34:58;;;;;;;5.05;3.65;;;;;;;;;;5084316;28;20199;-69
2023/06/08 10:37:28;;;;;;;3.97;3.75;;;;;;;;;;5083956;28;20678;-69
2023/06/08 10:39:55;;;;;;;3.92;3.75;;;;;;;;;;5083782;28;20207;-69
2023/06/08 10:42:21;;;;;;;3.53;3.33;;;;;;;;;;5084032;28;20218;-69
2023/06/08 10:44:53;;;;;;;3.60;3.40;;;;;;;;;;5084389;28;20245;-69
2023/06/08 10:47:19;;;;;;;6.10;3.92;;;;;;;;;;5076310;28;20200;-69
2023/06/08 10:49:52;;;;;;;4.25;3.95;;;;;;;;;;5083909;28;20207;-69
2023/06/08 10:52:19;;;;;;;4.32;3.67;;;;;;;;;;5076041;28;20192;-69
2023/06/08 10:54:51;;;;;;;3.90;3.67;;;;;;;;;;5083460;28;20231;-69
2023/06/08 10:57:32;;;;;;;4.05;3.75;;;;;;;;;;5075306;28;20199;-69
2023/06/08 10:59:59;;;;;;;3.92;3.60;;;;;;;;;;5084143;28;20267;-69
2023/06/08 11:02:27;;;;;;;4.20;3.83;;;;;;;;;;5083896;28;20237;-69
2023/06/08 11:04:56;;;;;;;3.40;3.30;;;;;;;;;;5083625;28;20207;-69
2023/06/08 11:07:23;;;;;;;3.97;3.67;;;;;;;;;;5083305;28;20200;-69
2023/06/08 11:09:50;;;;;;;3.83;3.63;;;;;;;;;;5083495;28;20211;-69
2023/06/08 11:12:16;;;;;;;3.70;3.60;;;;;;;;;;5075269;28;20195;-68
2023/06/08 11:14:42;;;;;;;4.50;4.20;;;;;;;;;;5083445;28;20503;-68
2023/06/08 11:17:09;;;;;;;6.50;3.70;;;;;;;;;;5083026;28;20538;-68
2023/06/08 11:19:36;;;;;;;6.13;3.85;;;;;;;;;;5083107;28;20259;-68
2023/06/08 11:22:04;;;;;;;4.32;3.97;;;;;;;;;;5083430;28;20228;-69
2023/06/08 11:24:30;;;;;;;4.10;3.80;;;;;;;;;;5083168;28;20204;-69
2023/06/08 11:26:59;;;;;;;6.75;3.70;;;;;;;;;;5082983;28;20227;-69
2023/06/08 11:29:25;;;;;;;4.47;3.90;;;;;;;;;;5083248;28;20196;-69
2023/06/08 11:31:51;;;;;;;5.40;4.38;;;;;;;;;;5082919;28;20427;-69
2023/06/08 11:34:18;;;;;;;5.03;4.63;;;;;;;;;;5083070;28;20263;-69
2023/06/08 11:36:44;;;;;;;4.60;4.20;;;;;;;;;;5082850;28;20214;-69
2023/06/08 11:39:12;;;;;;;4.22;4.03;;;;;;;;;;5083356;28;20200;-69
2023/06/08 11:41:38;;;;;;;5.47;4.38;;;;;;;;;;5082981;28;20220;-69
2023/06/08 11:44:04;;;;;;;5.70;4.22;;;;;;;;;;5082941;28;20377;-69
2023/06/08 11:46:32;;;;;;;4.30;4.10;;;;;;;;;;5082660;28;20203;-69
2023/06/08 11:49:09;;;;;;;4.38;4.03;;;;;;;;;;5082975;28;20199;-69
2023/06/08 11:51:42;;;;;;;4.25;3.85;;;;;;;;;;5082975;28;20199;-69
2023/06/08 11:54:08;;;;;;;4.65;4.43;;;;;;;;;;5082590;28;20367;-69
2023/06/08 11:56:36;;;;;;;4.32;4.13;;;;;;;;;;5082597;28;20196;-69
2023/06/08 11:59:02;;;;;;;4.45;4.15;;;;;;;;;;5082960;28;20200;-69
2023/06/08 12:01:29;;;;;;;4.97;4.68;;;;;;;;;;5082760;28;20550;-69
2023/06/08 12:03:56;;;;;;;7.70;4.40;;;;;;;;;;5082659;28;20200;-70
2023/06/08 12:06:26;;;;;;;4.68;4.28;;;;;;;;;;5082235;28;20196;-69
2023/06/08 12:08:53;;;;;;;4.43;4.10;;;;;;;;;;5082973;28;20502;-69
2023/06/08 12:11:19;;;;;;;4.15;3.95;;;;;;;;;;5082650;28;20200;-69
2023/06/08 12:13:47;;;;;;;4.75;4.45;;;;;;;;;;5082496;28;20199;-69
2023/06/08 12:16:13;;;;;;;4.30;3.90;;;;;;;;;;5081952;28;20203;-69
2023/06/08 12:18:40;;;;;;;10.73;4.05;;;;;;;;;;5082584;28;20209;-69
2023/06/08 12:21:07;;;;;;;9.60;3.88;;;;;;;;;;5082272;28;20200;-69
2023/06/08 12:23:33;;;;;;;6.65;3.65;;;;;;;;;;5082414;28;20263;-69
2023/06/08 12:25:59;;;;;;;10.68;3.45;;;;;;;;;;5081859;28;20200;-69
2023/06/08 12:28:26;;;;;;;7.22;3.45;;;;;;;;;;5082473;28;20223;-69
2023/06/08 12:30:54;;;;;;;10.30;3.60;;;;;;;;;;5082534;28;20199;-69
2023/06/08 12:33:21;;;;;;;5.82;3.90;;;;;;;;;;5074135;28;20210;-69
2023/06/08 12:35:49;;;;;;;7.18;3.75;;;;;;;;;;5082090;28;20389;-69
2023/06/08 12:38:16;;;;;;;4.28;3.70;;;;;;;;;;5082025;28;20204;-69
2023/06/08 12:40:47;;;;;;;6.30;3.70;;;;;;;;;;5081942;28;20204;-69
2023/06/08 12:43:13;;;;;;;4.05;3.70;;;;;;;;;;5081864;28;20219;-69
2023/06/08 12:45:39;;;;;;;7.97;4.07;;;;;;;;;;5082126;28;20448;-69
2023/06/08 12:48:07;;;;;;;4.13;3.70;;;;;;;;;;5082072;28;20223;-69
2023/06/08 12:50:33;;;;;;;3.75;3.38;;;;;;;;;;5082354;28;20377;-69
2023/06/08 12:52:59;;;;;;;6.97;4.80;;;;;;;;;;5082056;28;20202;-69
2023/06/08 12:55:26;;;;;;;4.95;4.55;;;;;;;;;;5082072;28;20208;-69
2023/06/08 12:57:52;;;;;;;7.55;3.90;;;;;;;;;;5082130;28;20588;-69
2023/06/08 13:00:21;;;;;;;10.23;4.40;;;;;;;;;;5082105;28;20204;-69
2023/06/08 13:02:48;;;;;;;6.50;4.72;;;;;;;;;;5082002;28;20450;-69
2023/06/08 13:05:15;;;;;;;9.90;5.85;;;;;;;;;;5082139;28;20208;-69
2023/06/08 13:07:42;;;;;;;13.60;5.47;;;;;;;;;;5081804;28;20210;-70
2023/06/08 13:10:08;;;;;;;9.95;5.28;;;;;;;;;;5082202;28;20200;-69
2023/06/08 13:12:35;;;;;;;7.90;5.80;;;;;;;;;;5082135;28;20430;-69
2023/06/08 13:15:01;;;;;;;8.23;4.80;;;;;;;;;;5082258;28;20231;-70
2023/06/08 13:17:27;;;;;;;7.70;4.68;;;;;;;;;;5082035;28;20226;-70
2023/06/08 13:19:54;;;;;;;6.55;4.82;;;;;;;;;;5084762;28;20201;-70
2023/06/08 13:22:22;;;;;;;6.13;4.72;;;;;;;;;;5085744;28;20566;-69
2023/06/08 13:24:48;;;;;;;13.43;5.40;;;;;;;;;;5086275;28;20204;-69
2023/06/08 13:27:15;;;;;;;5.40;4.90;;;;;;;;;;5085655;28;20227;-69
2023/06/08 13:29:47;;;;;;;8.15;5.43;;;;;;;;;;5085940;28;20504;-69
2023/06/08 13:32:14;;;;;;;5.40;4.90;;;;;;;;;;5085735;28;20192;-69
2023/06/08 13:34:40;;;;;;;5.43;4.95;;;;;;;;;;5085912;28;20209;-69
2023/06/08 13:37:07;;;;;;;8.68;4.95;;;;;;;;;;5085882;28;20219;-69
2023/06/08 13:39:34;;;;;;;6.00;5.22;;;;;;;;;;5085853;28;20211;-69
2023/06/08 13:42:00;;;;;;;8.77;5.78;;;;;;;;;;5085690;28;20227;-69
2023/06/08 13:44:27;;;;;;;6.10;4.78;;;;;;;;;;5085700;28;20203;-69
2023/06/08 13:46:53;;;;;;;7.28;4.85;;;;;;;;;;5085165;28;20204;-69
2023/06/08 13:49:20;;;;;;;7.30;5.38;;;;;;;;;;5085544;28;20204;-70
2023/06/08 13:51:47;;;;;;;12.27;5.70;;;;;;;;;;5085544;28;20393;-69
2023/06/08 13:54:14;;;;;;;8.50;5.50;;;;;;;;;;5085268;28;20201;-69
2023/06/08 13:56:42;;;;;;;10.27;6.05;;;;;;;;;;5085099;28;20208;-69
2023/06/08 13:59:08;;;;;;;6.97;4.78;;;;;;;;;;5085074;28;20200;-69
2023/06/08 14:01:34;;;;;;;5.82;5.30;;;;;;;;;;5084894;28;20201;-69
2023/06/08 14:04:01;;;;;;;5.70;5.28;;;;;;;;;;5084858;28;20200;-69
2023/06/08 14:06:27;;;;;;;6.40;5.75;;;;;;;;;;5084733;28;20403;-69
2023/06/08 14:08:53;;;;;;;7.13;6.25;;;;;;;;;;5085007;28;20200;-69
2023/06/08 14:11:20;;;;;;;6.50;5.90;;;;;;;;;;5084827;28;20212;-69
2023/06/08 14:13:48;;;;;;;7.30;5.88;;;;;;;;;;5085068;28;20203;-69
2023/06/08 14:16:14;;;;;;;6.30;5.43;;;;;;;;;;5084493;28;20207;-69
2023/06/08 14:18:41;;;;;;;6.40;4.97;;;;;;;;;;5084185;28;20200;-69
2023/06/08 14:21:08;;;;;;;7.32;4.90;;;;;;;;;;5084387;28;20208;-69
2023/06/08 14:23:34;;;;;;;5.50;5.00;;;;;;;;;;5084568;28;20220;-69
2023/06/08 14:26:01;;;;;;;5.93;5.28;;;;;;;;;;5084304;28;20254;-69
2023/06/08 14:28:27;;;;;;;5.15;4.65;;;;;;;;;;5076295;28;20220;-70
2023/06/08 14:30:55;;;;;;;6.47;5.88;;;;;;;;;;5084290;28;20271;-69
2023/06/08 14:33:21;;;;;;;5.72;5.32;;;;;;;;;;5084352;28;20515;-69
2023/06/08 14:35:47;;;;;;;6.80;6.10;;;;;;;;;;5084233;28;20223;-69
2023/06/08 14:38:14;;;;;;;7.18;6.03;;;;;;;;;;5084181;28;20445;-69
2023/06/08 14:40:40;;;;;;;10.57;7.40;;;;;;;;;;5084189;28;20526;-69
2023/06/08 14:43:07;;;;;;;9.07;6.65;;;;;;;;;;5084054;28;20227;-69